createdAt,value
2022-11-03T00:00:53.704Z,80.55
2022-11-03T00:01:53.957Z,80.75
2022-11-03T00:02:53.751Z,80.55
2022-11-03T00:03:53.674Z,80.75
2022-11-03T00:04:53.668Z,80.96
2022-11-03T00:05:54.659Z,80.85
2022-11-03T00:06:53.733Z,80.44
2022-11-03T00:07:53.645Z,80.55
2022-11-03T00:08:53.657Z,81.20
2022-11-03T00:09:54.640Z,80.89
2022-11-03T00:10:53.597Z,81.10
2022-11-03T00:11:53.611Z,81.10
2022-11-03T00:12:53.584Z,80.58
2022-11-03T00:13:53.565Z,80.99
2022-11-03T00:14:53.547Z,81.05
2022-11-03T00:15:53.533Z,80.58
2022-11-03T00:16:53.772Z,80.69
2022-11-03T00:17:53.515Z,81.30
2022-11-03T00:18:53.520Z,81.26
2022-11-03T00:19:53.495Z,80.48
2022-11-03T00:20:53.491Z,80.69
2022-11-03T00:21:53.484Z,80.89
2022-11-03T00:22:54.561Z,80.85
2022-11-03T00:23:53.445Z,80.85
2022-11-03T00:24:54.234Z,81.10
2022-11-03T00:25:53.419Z,80.48
2022-11-03T00:26:53.435Z,80.99
2022-11-03T00:27:54.240Z,80.58
2022-11-03T00:28:53.447Z,80.58
2022-11-03T00:29:53.386Z,80.79
2022-11-03T00:30:54.222Z,81.30
2022-11-03T00:31:53.365Z,80.58
2022-11-03T00:32:53.356Z,81.16
2022-11-03T00:33:53.352Z,81.40
2022-11-03T00:34:53.342Z,81.20
2022-11-03T00:35:53.311Z,81.40
2022-11-03T00:36:54.219Z,81.81
2022-11-03T00:37:54.342Z,81.30
2022-11-03T00:38:53.285Z,81.40
2022-11-03T00:39:54.324Z,81.40
2022-11-03T00:40:53.281Z,81.71
2022-11-03T00:41:53.254Z,81.60
2022-11-03T00:42:53.241Z,81.51
2022-11-03T00:43:53.243Z,81.40
2022-11-03T00:44:53.236Z,81.81
2022-11-03T00:45:53.215Z,81.71
2022-11-03T00:46:53.191Z,81.81
2022-11-03T00:48:53.247Z,81.20
2022-11-03T00:49:53.175Z,81.91
2022-11-03T00:50:53.154Z,81.71
2022-11-03T00:51:53.145Z,81.81
2022-11-03T00:52:53.148Z,81.71
2022-11-03T00:53:53.132Z,82.01
2022-11-03T00:54:55.284Z,81.91
2022-11-03T00:55:53.097Z,82.26
2022-11-03T00:56:53.098Z,82.36
2022-11-03T00:57:53.071Z,82.46
2022-11-03T00:58:53.079Z,82.56
2022-11-03T00:59:53.075Z,82.67
2022-11-03T01:00:53.161Z,82.77
2022-11-03T01:01:53.179Z,82.46
2022-11-03T01:02:53.017Z,82.01
2022-11-03T01:03:53.023Z,82.46
2022-11-03T01:04:53.016Z,82.36
2022-11-03T01:05:52.995Z,82.26
2022-11-03T01:06:52.980Z,82.36
2022-11-03T01:07:53.054Z,82.77
2022-11-03T01:08:52.972Z,82.97
2022-11-03T01:09:52.968Z,82.63
2022-11-03T01:10:53.730Z,82.77
2022-11-03T01:11:52.943Z,82.77
2022-11-03T01:12:52.943Z,82.73
2022-11-03T01:13:52.895Z,82.77
2022-11-03T01:14:55.717Z,83.18
2022-11-03T01:15:52.880Z,82.93
2022-11-03T01:16:52.914Z,82.67
2022-11-03T01:17:52.875Z,83.18
2022-11-03T01:18:52.840Z,83.34
2022-11-03T01:19:52.834Z,83.54
2022-11-03T01:20:52.823Z,83.34
2022-11-03T01:21:52.821Z,83.54
2022-11-03T01:22:52.815Z,83.48
2022-11-03T01:23:55.719Z,84.41
2022-11-03T01:24:52.784Z,83.75
2022-11-03T01:25:52.765Z,83.69
2022-11-03T01:26:52.784Z,83.85
2022-11-03T01:27:52.806Z,84.06
2022-11-03T01:28:52.757Z,83.59
2022-11-03T01:29:52.730Z,83.65
2022-11-03T01:30:52.714Z,83.89
2022-11-03T01:31:52.742Z,84.00
2022-11-03T01:32:52.703Z,84.00
2022-11-03T01:33:54.723Z,83.79
2022-11-03T01:34:52.667Z,84.61
2022-11-03T01:35:52.663Z,84.77
2022-11-03T01:36:52.640Z,83.85
2022-11-03T01:37:52.661Z,84.57
2022-11-03T01:38:52.629Z,84.71
2022-11-03T01:39:52.624Z,84.20
2022-11-03T01:40:52.603Z,84.20
2022-11-03T01:41:52.613Z,84.20
2022-11-03T01:42:52.581Z,84.09
2022-11-03T01:43:52.585Z,83.95
2022-11-03T01:44:52.581Z,84.26
2022-11-03T01:45:53.224Z,84.06
2022-11-03T01:46:52.558Z,84.41
2022-11-03T01:47:53.274Z,84.36
2022-11-03T01:48:52.517Z,84.06
2022-11-03T01:49:52.512Z,84.57
2022-11-03T01:50:52.486Z,84.47
2022-11-03T01:51:52.476Z,84.57
2022-11-03T01:52:52.484Z,84.41
2022-11-03T01:53:52.458Z,84.61
2022-11-03T01:54:52.438Z,84.57
2022-11-03T01:55:55.214Z,84.71
2022-11-03T01:56:52.430Z,85.12
2022-11-03T01:57:52.420Z,85.12
2022-11-03T01:58:52.413Z,84.91
2022-11-03T01:59:52.389Z,85.12
2022-11-03T02:00:52.508Z,85.32
2022-11-03T02:01:52.464Z,86.14
2022-11-03T02:02:52.387Z,85.83
2022-11-03T02:03:52.347Z,85.83
2022-11-03T02:04:52.341Z,85.73
2022-11-03T02:05:52.328Z,85.94
2022-11-03T02:06:52.312Z,85.83
2022-11-03T02:07:52.320Z,86.04
2022-11-03T02:08:52.313Z,85.53
2022-11-03T02:09:52.290Z,85.63
2022-11-03T02:10:52.293Z,85.94
2022-11-03T02:11:52.269Z,85.42
2022-11-03T02:12:52.253Z,85.63
2022-11-03T02:13:52.251Z,86.35
2022-11-03T02:14:52.245Z,86.10
2022-11-03T02:15:52.222Z,86.35
2022-11-03T02:16:52.225Z,86.44
2022-11-03T02:17:52.202Z,86.14
2022-11-03T02:18:52.188Z,86.24
2022-11-03T02:19:52.178Z,86.30
2022-11-03T02:20:52.185Z,85.53
2022-11-03T02:21:52.162Z,86.14
2022-11-03T02:22:52.162Z,85.83
2022-11-03T02:23:52.132Z,86.00
2022-11-03T02:24:54.125Z,85.73
2022-11-03T02:25:52.123Z,85.83
2022-11-03T02:26:52.106Z,86.10
2022-11-03T02:27:52.091Z,85.89
2022-11-03T02:29:52.071Z,86.20
2022-11-03T02:30:52.067Z,86.00
2022-11-03T02:31:52.060Z,86.00
2022-11-03T02:32:52.056Z,86.00
2022-11-03T02:33:52.035Z,85.59
2022-11-03T02:34:52.025Z,85.79
2022-11-03T02:35:52.001Z,86.10
2022-11-03T02:36:52.000Z,85.89
2022-11-03T02:37:51.981Z,85.79
2022-11-03T02:38:51.963Z,85.89
2022-11-03T02:39:51.964Z,85.89
2022-11-03T02:40:51.951Z,85.79
2022-11-03T02:41:52.973Z,86.20
2022-11-03T02:42:51.935Z,86.10
2022-11-03T02:43:51.922Z,86.24
2022-11-03T02:44:51.908Z,86.61
2022-11-03T02:45:51.896Z,86.61
2022-11-03T02:46:52.957Z,86.51
2022-11-03T02:47:51.870Z,86.61
2022-11-03T02:48:51.893Z,86.71
2022-11-03T02:49:51.902Z,86.51
2022-11-03T02:50:51.841Z,86.55
2022-11-03T02:51:51.823Z,86.41
2022-11-03T02:52:52.728Z,86.41
2022-11-03T02:53:51.817Z,86.91
2022-11-03T02:54:51.899Z,86.91
2022-11-03T02:55:51.809Z,86.71
2022-11-03T02:56:51.767Z,86.91
2022-11-03T02:57:51.805Z,86.20
2022-11-03T02:58:51.768Z,86.71
2022-11-03T02:59:51.766Z,87.06
2022-11-03T03:00:51.749Z,86.91
2022-11-03T03:01:51.838Z,87.02
2022-11-03T03:02:51.702Z,87.02
2022-11-03T03:03:52.232Z,86.91
2022-11-03T03:04:51.714Z,86.41
2022-11-03T03:05:51.680Z,86.20
2022-11-03T03:06:51.660Z,86.20
2022-11-03T03:07:51.655Z,86.91
2022-11-03T03:08:51.644Z,86.82
2022-11-03T03:09:51.651Z,86.41
2022-11-03T03:10:51.639Z,86.71
2022-11-03T03:11:51.601Z,86.82
2022-11-03T03:12:51.601Z,86.91
2022-11-03T03:13:51.581Z,86.30
2022-11-03T03:14:51.603Z,87.02
2022-11-03T03:15:51.559Z,87.12
2022-11-03T03:16:51.558Z,87.23
2022-11-03T03:17:51.550Z,86.88
2022-11-03T03:18:51.530Z,87.02
2022-11-03T03:19:51.511Z,87.23
2022-11-03T03:20:51.550Z,87.32
2022-11-03T03:21:51.506Z,87.53
2022-11-03T03:22:51.482Z,87.53
2022-11-03T03:23:51.481Z,87.43
2022-11-03T03:24:51.471Z,87.32
2022-11-03T03:25:51.473Z,87.38
2022-11-03T03:26:51.459Z,87.12
2022-11-03T03:27:51.439Z,87.94
2022-11-03T03:28:51.439Z,87.84
2022-11-03T03:29:51.419Z,87.84
2022-11-03T03:30:51.418Z,88.00
2022-11-03T03:31:51.407Z,87.84
2022-11-03T03:32:51.378Z,88.04
2022-11-03T03:33:56.086Z,87.84
2022-11-03T03:34:52.354Z,88.04
2022-11-03T03:35:51.345Z,87.79
2022-11-03T03:36:51.355Z,87.73
2022-11-03T03:37:51.322Z,87.84
2022-11-03T03:38:51.317Z,87.73
2022-11-03T03:39:51.331Z,87.84
2022-11-03T03:40:51.317Z,87.94
2022-11-03T03:41:51.281Z,87.73
2022-11-03T03:42:51.290Z,87.84
2022-11-03T03:43:51.257Z,87.73
2022-11-03T03:44:51.252Z,87.84
2022-11-03T03:45:51.237Z,87.59
2022-11-03T03:46:51.247Z,87.94
2022-11-03T03:47:56.369Z,87.90
2022-11-03T03:48:52.202Z,87.70
2022-11-03T03:49:51.197Z,87.94
2022-11-03T03:50:51.172Z,87.84
2022-11-03T03:51:51.172Z,87.90
2022-11-03T03:52:51.191Z,88.24
2022-11-03T03:53:51.155Z,87.63
2022-11-03T03:54:51.154Z,87.73
2022-11-03T03:55:51.119Z,87.73
2022-11-03T03:56:51.115Z,87.84
2022-11-03T03:57:51.926Z,87.63
2022-11-03T03:58:51.092Z,87.84
2022-11-03T03:59:51.086Z,87.49
2022-11-03T04:00:51.121Z,87.70
2022-11-03T04:01:51.201Z,87.84
2022-11-03T04:02:51.051Z,87.63
2022-11-03T04:03:51.041Z,87.70
2022-11-03T04:04:51.030Z,87.84
2022-11-03T04:05:51.028Z,87.79
2022-11-03T04:06:51.006Z,87.49
2022-11-03T04:07:51.006Z,87.94
2022-11-03T04:08:51.749Z,87.79
2022-11-03T04:09:51.008Z,88.04
2022-11-03T04:10:50.965Z,87.73
2022-11-03T04:11:50.952Z,88.00
2022-11-03T04:12:51.008Z,87.94
2022-11-03T04:13:50.950Z,88.14
2022-11-03T04:14:50.915Z,88.24
2022-11-03T04:15:50.923Z,88.04
2022-11-03T04:17:05.726Z,87.59
2022-11-03T04:17:50.883Z,87.94
2022-11-03T04:18:53.741Z,88.55
2022-11-03T04:19:50.850Z,88.35
2022-11-03T04:20:50.871Z,88.35
2022-11-03T04:21:50.853Z,88.45
2022-11-03T04:22:50.823Z,88.35
2022-11-03T04:23:50.822Z,88.45
2022-11-03T04:24:50.821Z,88.35
2022-11-03T04:25:50.800Z,88.55
2022-11-03T04:26:50.802Z,88.14
2022-11-03T04:27:50.782Z,88.04
2022-11-03T04:28:50.759Z,88.55
2022-11-03T04:29:50.761Z,88.24
2022-11-03T04:30:54.584Z,88.55
2022-11-03T04:31:51.753Z,88.14
2022-11-03T04:32:50.720Z,87.53
2022-11-03T04:33:50.712Z,87.59
2022-11-03T04:34:50.690Z,87.90
2022-11-03T04:35:50.719Z,87.84
2022-11-03T04:36:50.673Z,87.63
2022-11-03T04:37:50.690Z,87.73
2022-11-03T04:38:50.671Z,87.84
2022-11-03T04:39:50.654Z,87.84
2022-11-03T04:40:53.689Z,87.94
2022-11-03T04:41:50.622Z,87.84
2022-11-03T04:42:50.609Z,87.90
2022-11-03T04:43:50.604Z,87.49
2022-11-03T04:44:50.597Z,87.94
2022-11-03T04:45:50.585Z,87.84
2022-11-03T04:46:50.580Z,88.00
2022-11-03T04:47:50.562Z,88.04
2022-11-03T04:48:50.550Z,88.10
2022-11-03T04:49:50.548Z,88.14
2022-11-03T04:50:50.523Z,88.10
2022-11-03T04:51:50.512Z,88.14
2022-11-03T04:52:50.508Z,87.49
2022-11-03T04:53:50.487Z,88.00
2022-11-03T04:54:50.527Z,87.49
2022-11-03T04:55:50.465Z,88.00
2022-11-03T04:56:50.512Z,87.38
2022-11-03T04:57:50.439Z,87.79
2022-11-03T04:58:50.449Z,87.79
2022-11-03T04:59:50.435Z,87.90
2022-11-03T05:00:50.458Z,87.70
2022-11-03T05:01:50.628Z,87.79
2022-11-03T05:02:53.200Z,87.59
2022-11-03T05:03:51.384Z,87.90
2022-11-03T05:04:50.373Z,87.85
2022-11-03T05:05:50.374Z,88.00
2022-11-03T05:06:50.353Z,87.76
2022-11-03T05:07:50.362Z,87.96
2022-11-03T05:08:50.339Z,87.85
2022-11-03T05:09:50.313Z,87.79
2022-11-03T05:10:50.296Z,87.96
2022-11-03T05:11:50.294Z,87.65
2022-11-03T05:12:50.310Z,87.85
2022-11-03T05:13:50.280Z,87.55
2022-11-03T05:14:55.462Z,87.65
2022-11-03T05:15:51.296Z,87.85
2022-11-03T05:16:50.262Z,87.76
2022-11-03T05:17:50.232Z,87.85
2022-11-03T05:18:50.218Z,87.85
2022-11-03T05:19:50.206Z,87.65
2022-11-03T05:20:50.745Z,87.96
2022-11-03T05:21:50.193Z,87.76
2022-11-03T05:22:50.226Z,87.85
2022-11-03T05:23:50.733Z,87.96
2022-11-03T05:24:50.132Z,87.96
2022-11-03T05:25:50.140Z,87.76
2022-11-03T05:26:50.726Z,87.55
2022-11-03T05:27:50.122Z,87.76
2022-11-03T05:28:50.153Z,87.76
2022-11-03T05:29:50.115Z,87.55
2022-11-03T05:30:50.069Z,87.85
2022-11-03T05:31:50.076Z,87.96
2022-11-03T05:32:50.067Z,87.45
2022-11-03T05:33:50.054Z,87.35
2022-11-03T05:34:50.098Z,87.14
2022-11-03T05:35:50.031Z,86.73
2022-11-03T05:36:50.026Z,87.04
2022-11-03T05:37:50.006Z,86.94
2022-11-03T05:38:50.009Z,86.94
2022-11-03T05:39:49.988Z,86.73
2022-11-03T05:40:50.006Z,86.83
2022-11-03T05:41:49.967Z,86.73
2022-11-03T05:42:49.952Z,86.59
2022-11-03T05:43:49.941Z,86.12
2022-11-03T05:44:49.958Z,86.02
2022-11-03T05:45:49.933Z,86.94
2022-11-03T05:46:49.937Z,87.14
2022-11-03T05:47:49.902Z,86.83
2022-11-03T05:48:49.895Z,86.83
2022-11-03T05:49:49.877Z,86.83
2022-11-03T05:50:49.876Z,86.73
2022-11-03T05:51:49.859Z,86.43
2022-11-03T05:52:49.874Z,86.29
2022-11-03T05:53:49.835Z,86.73
2022-11-03T05:54:49.828Z,86.83
2022-11-03T05:55:49.838Z,86.83
2022-11-03T05:56:49.797Z,86.43
2022-11-03T05:57:50.749Z,86.83
2022-11-03T05:58:49.773Z,86.12
2022-11-03T05:59:49.774Z,86.53
2022-11-03T06:00:49.788Z,86.53
2022-11-03T06:01:49.844Z,86.39
2022-11-03T06:02:49.821Z,86.53
2022-11-03T06:03:49.725Z,86.33
2022-11-03T06:04:50.237Z,86.53
2022-11-03T06:05:49.716Z,86.53
2022-11-03T06:06:49.719Z,86.39
2022-11-03T06:07:49.683Z,86.08
2022-11-03T06:08:49.693Z,86.08
2022-11-03T06:09:49.664Z,86.18
2022-11-03T06:10:50.239Z,85.88
2022-11-03T06:11:49.633Z,86.39
2022-11-03T06:12:49.647Z,86.02
2022-11-03T06:13:49.647Z,86.22
2022-11-03T06:14:49.612Z,86.33
2022-11-03T06:15:49.593Z,86.18
2022-11-03T06:17:04.259Z,85.88
2022-11-03T06:17:49.589Z,86.22
2022-11-03T06:18:52.247Z,86.29
2022-11-03T06:19:49.532Z,85.98
2022-11-03T06:20:49.544Z,86.12
2022-11-03T06:21:52.259Z,86.49
2022-11-03T06:22:49.515Z,86.08
2022-11-03T06:23:49.800Z,86.08
2022-11-03T06:24:49.493Z,85.98
2022-11-03T06:25:50.250Z,86.08
2022-11-03T06:26:49.478Z,85.77
2022-11-03T06:27:49.470Z,86.08
2022-11-03T06:28:49.451Z,85.68
2022-11-03T06:29:49.465Z,86.08
2022-11-03T06:30:51.994Z,86.39
2022-11-03T06:31:52.241Z,86.49
2022-11-03T06:32:49.447Z,86.39
2022-11-03T06:33:52.232Z,86.59
2022-11-03T06:34:49.423Z,86.49
2022-11-03T06:35:49.372Z,86.39
2022-11-03T06:36:49.367Z,86.49
2022-11-03T06:37:49.357Z,86.39
2022-11-03T06:38:49.355Z,86.49
2022-11-03T06:39:49.347Z,86.39
2022-11-03T06:40:49.765Z,86.49
2022-11-03T06:41:49.315Z,86.59
2022-11-03T06:42:49.337Z,86.18
2022-11-03T06:43:49.289Z,86.49
2022-11-03T06:44:49.284Z,86.35
2022-11-03T06:45:52.240Z,86.45
2022-11-03T06:46:49.264Z,86.35
2022-11-03T06:47:49.266Z,86.04
2022-11-03T06:48:49.252Z,86.04
2022-11-03T06:49:49.231Z,86.39
2022-11-03T06:50:49.212Z,86.45
2022-11-03T06:51:49.232Z,86.45
2022-11-03T06:53:49.190Z,86.35
2022-11-03T06:54:49.169Z,86.35
2022-11-03T06:55:49.169Z,86.45
2022-11-03T06:56:49.144Z,86.35
2022-11-03T06:57:49.739Z,86.45
2022-11-03T06:58:49.129Z,86.35
2022-11-03T06:59:57.026Z,86.35
2022-11-03T07:00:51.735Z,86.35
2022-11-03T07:01:49.188Z,86.55
2022-11-03T07:02:49.100Z,85.94
2022-11-03T07:03:49.079Z,86.55
2022-11-03T07:04:49.075Z,85.94
2022-11-03T07:05:49.088Z,86.35
2022-11-03T07:06:53.177Z,86.41
2022-11-03T07:07:49.029Z,86.35
2022-11-03T07:08:49.051Z,86.04
2022-11-03T07:09:49.010Z,85.94
2022-11-03T07:10:55.741Z,86.45
2022-11-03T07:11:48.986Z,86.45
2022-11-03T07:12:48.966Z,86.35
2022-11-03T07:13:48.959Z,86.45
2022-11-03T07:14:48.961Z,86.45
2022-11-03T07:15:48.950Z,86.35
2022-11-03T07:16:48.929Z,86.35
2022-11-03T07:17:49.921Z,86.10
2022-11-03T07:18:49.261Z,86.65
2022-11-03T07:19:48.903Z,86.76
2022-11-03T07:20:48.903Z,86.96
2022-11-03T07:21:48.878Z,87.16
2022-11-03T07:22:48.868Z,87.16
2022-11-03T07:23:49.748Z,87.57
2022-11-03T07:24:48.869Z,87.77
2022-11-03T07:25:48.824Z,87.37
2022-11-03T07:26:48.824Z,87.71
2022-11-03T07:27:48.810Z,87.82
2022-11-03T07:28:48.799Z,87.92
2022-11-03T07:29:48.790Z,87.77
2022-11-03T07:30:48.834Z,87.71
2022-11-03T07:31:48.757Z,87.71
2022-11-03T07:32:48.758Z,87.57
2022-11-03T07:33:48.739Z,88.08
2022-11-03T07:34:49.762Z,87.77
2022-11-03T07:36:16.234Z,87.67
2022-11-03T07:36:54.390Z,86.76
2022-11-03T07:37:49.671Z,87.37
2022-11-03T07:38:48.772Z,87.26
2022-11-03T07:39:55.241Z,86.76
2022-11-03T07:40:48.686Z,86.86
2022-11-03T07:41:49.240Z,86.71
2022-11-03T07:42:48.652Z,86.82
2022-11-03T07:43:48.766Z,86.86
2022-11-03T07:44:49.686Z,86.71
2022-11-03T07:45:49.239Z,86.65
2022-11-03T07:46:48.599Z,86.86
2022-11-03T07:47:48.600Z,86.76
2022-11-03T07:48:48.578Z,86.86
2022-11-03T07:49:48.572Z,86.86
2022-11-03T07:50:49.256Z,87.16
2022-11-03T07:51:48.557Z,86.65
2022-11-03T07:52:48.565Z,86.82
2022-11-03T07:53:48.544Z,86.82
2022-11-03T07:54:48.517Z,86.61
2022-11-03T07:55:49.294Z,87.02
2022-11-03T07:56:48.502Z,87.53
2022-11-03T07:57:48.471Z,87.12
2022-11-03T07:58:48.481Z,87.98
2022-11-03T07:59:48.451Z,87.63
2022-11-03T08:00:48.447Z,87.53
2022-11-03T08:01:48.556Z,87.88
2022-11-03T08:02:48.512Z,87.43
2022-11-03T08:03:48.628Z,87.84
2022-11-03T08:04:48.401Z,87.73
2022-11-03T08:05:49.260Z,87.84
2022-11-03T08:06:48.393Z,87.63
2022-11-03T08:07:48.380Z,87.73
2022-11-03T08:08:48.395Z,87.63
2022-11-03T08:09:48.408Z,87.84
2022-11-03T08:10:48.345Z,88.04
2022-11-03T08:11:48.342Z,87.94
2022-11-03T08:12:49.255Z,87.84
2022-11-03T08:13:48.302Z,87.63
2022-11-03T08:14:48.299Z,87.32
2022-11-03T08:15:48.273Z,87.53
2022-11-03T08:16:48.283Z,87.63
2022-11-03T08:17:52.102Z,87.63
2022-11-03T08:18:49.251Z,87.53
2022-11-03T08:19:48.241Z,87.84
2022-11-03T08:20:49.250Z,88.00
2022-11-03T08:21:48.237Z,87.53
2022-11-03T08:22:59.269Z,87.73
2022-11-03T08:23:49.282Z,87.69
2022-11-03T08:24:48.197Z,87.79
2022-11-03T08:25:48.166Z,87.18
2022-11-03T08:26:48.169Z,86.88
2022-11-03T08:27:48.150Z,86.47
2022-11-03T08:28:48.137Z,86.88
2022-11-03T08:29:48.174Z,87.08
2022-11-03T08:30:48.114Z,86.77
2022-11-03T08:31:54.763Z,86.68
2022-11-03T08:32:48.094Z,86.47
2022-11-03T08:33:48.086Z,86.13
2022-11-03T08:34:48.079Z,86.47
2022-11-03T08:35:48.277Z,85.92
2022-11-03T08:36:48.050Z,85.82
2022-11-03T08:37:48.040Z,85.82
2022-11-03T08:38:48.035Z,85.31
2022-11-03T08:39:48.053Z,85.61
2022-11-03T08:40:52.671Z,84.86
2022-11-03T08:41:48.992Z,84.76
2022-11-03T08:42:54.764Z,85.27
2022-11-03T08:43:47.962Z,84.05
2022-11-03T08:44:48.757Z,84.86
2022-11-03T08:45:49.249Z,85.53
2022-11-03T08:46:47.945Z,85.58
2022-11-03T08:47:49.331Z,85.64
2022-11-03T08:48:47.916Z,84.82
2022-11-03T08:49:47.938Z,84.52
2022-11-03T08:50:47.894Z,83.81
2022-11-03T08:51:47.894Z,83.91
2022-11-03T08:52:47.871Z,84.21
2022-11-03T08:53:47.879Z,84.01
2022-11-03T08:54:47.985Z,83.91
2022-11-03T08:55:47.850Z,83.70
2022-11-03T08:56:47.839Z,83.50
2022-11-03T08:57:47.823Z,83.70
2022-11-03T08:58:48.759Z,84.38
2022-11-03T08:59:47.839Z,83.87
2022-11-03T09:00:48.279Z,84.42
2022-11-03T09:01:47.872Z,83.20
2022-11-03T09:02:47.768Z,84.31
2022-11-03T09:03:47.916Z,84.42
2022-11-03T09:04:48.823Z,82.79
2022-11-03T09:05:47.724Z,82.68
2022-11-03T09:06:47.725Z,82.48
2022-11-03T09:10:48.679Z,82.34
2022-11-03T09:11:47.674Z,83.06
2022-11-03T09:12:47.745Z,83.26
2022-11-03T09:13:47.635Z,82.65
2022-11-03T09:14:47.672Z,82.24
2022-11-03T09:15:47.626Z,82.54
2022-11-03T09:16:47.607Z,82.54
2022-11-03T09:17:47.610Z,82.31
2022-11-03T09:18:47.618Z,81.49
2022-11-03T09:19:47.582Z,81.02
2022-11-03T09:20:47.571Z,81.70
2022-11-03T09:21:49.608Z,81.70
2022-11-03T09:22:47.542Z,80.88
2022-11-03T09:23:47.565Z,81.29
2022-11-03T09:24:47.525Z,80.88
2022-11-03T09:25:47.520Z,81.09
2022-11-03T09:26:47.515Z,81.29
2022-11-03T09:27:47.496Z,80.88
2022-11-03T09:28:47.523Z,80.88
2022-11-03T09:30:11.550Z,80.88
2022-11-03T09:30:49.253Z,80.88
2022-11-03T09:31:48.263Z,81.29
2022-11-03T09:32:47.450Z,81.29
2022-11-03T09:33:48.251Z,80.98
2022-11-03T09:34:47.429Z,80.88
2022-11-03T09:35:47.430Z,80.78
2022-11-03T09:36:53.129Z,80.74
2022-11-03T09:37:48.392Z,80.78
2022-11-03T09:38:47.786Z,80.94
2022-11-03T09:39:47.425Z,80.64
2022-11-03T09:41:58.003Z,80.54
2022-11-03T09:42:48.349Z,80.54
2022-11-03T09:43:47.344Z,79.72
2022-11-03T09:44:47.332Z,80.24
2022-11-03T09:45:47.310Z,80.13
2022-11-03T09:46:47.293Z,79.93
2022-11-03T09:47:47.338Z,79.83
2022-11-03T09:48:47.302Z,79.72
2022-11-03T09:49:47.258Z,79.52
2022-11-03T09:50:47.264Z,78.98
2022-11-03T09:51:47.230Z,79.63
2022-11-03T09:52:51.307Z,79.69
2022-11-03T09:53:47.225Z,79.28
2022-11-03T09:54:47.205Z,79.69
2022-11-03T09:55:47.181Z,78.78
2022-11-03T09:56:47.190Z,78.88
2022-11-03T09:57:47.171Z,79.28
2022-11-03T09:58:51.357Z,78.98
2022-11-03T09:59:48.206Z,79.59
2022-11-03T10:00:47.315Z,79.14
2022-11-03T10:01:47.400Z,79.59
2022-11-03T10:02:47.762Z,77.56
2022-11-03T10:03:47.097Z,77.97
2022-11-03T10:04:47.105Z,78.47
2022-11-03T10:05:47.071Z,78.44
2022-11-03T10:06:47.760Z,78.44
2022-11-03T10:07:47.082Z,77.22
2022-11-03T10:08:47.074Z,77.22
2022-11-03T10:09:47.027Z,77.22
2022-11-03T10:10:47.017Z,77.22
2022-11-03T10:11:47.015Z,77.18
2022-11-03T10:12:47.002Z,76.78
2022-11-03T10:13:46.998Z,76.78
2022-11-03T10:14:46.994Z,76.78
2022-11-03T10:15:49.349Z,76.98
2022-11-03T10:16:50.830Z,76.87
2022-11-03T10:17:48.001Z,76.47
2022-11-03T10:18:46.940Z,76.67
2022-11-03T10:19:46.921Z,75.82
2022-11-03T10:20:47.759Z,75.46
2022-11-03T10:21:47.289Z,75.56
2022-11-03T10:22:46.899Z,75.86
2022-11-03T10:23:46.889Z,75.86
2022-11-03T10:24:47.771Z,75.42
2022-11-03T10:25:46.863Z,75.15
2022-11-03T10:26:46.843Z,75.12
2022-11-03T10:27:47.296Z,74.91
2022-11-03T10:28:46.822Z,75.15
2022-11-03T10:29:50.821Z,75.25
2022-11-03T10:31:09.934Z,75.96
2022-11-03T10:31:47.803Z,75.46
2022-11-03T10:32:46.776Z,75.52
2022-11-03T10:33:46.805Z,75.73
2022-11-03T10:34:49.273Z,75.35
2022-11-03T10:35:46.757Z,75.46
2022-11-03T10:36:50.447Z,75.15
2022-11-03T10:37:47.264Z,75.42
2022-11-03T10:38:46.725Z,74.00
2022-11-03T10:39:46.745Z,75.32
2022-11-03T10:40:49.336Z,75.62
2022-11-03T10:41:46.681Z,74.00
2022-11-03T10:42:46.685Z,74.00
2022-11-03T10:43:47.269Z,74.30
2022-11-03T10:44:46.722Z,75.22
2022-11-03T10:45:46.632Z,74.91
2022-11-03T10:46:51.222Z,75.22
2022-11-03T10:47:47.649Z,74.41
2022-11-03T10:48:46.612Z,74.00
2022-11-03T10:49:47.276Z,74.10
2022-11-03T10:50:46.615Z,74.81
2022-11-03T10:51:46.590Z,74.51
2022-11-03T10:52:46.564Z,74.91
2022-11-03T10:53:46.571Z,74.41
2022-11-03T10:54:46.550Z,75.01
2022-11-03T10:55:46.564Z,75.01
2022-11-03T10:56:53.262Z,74.00
2022-11-03T10:57:50.552Z,75.22
2022-11-03T10:58:47.585Z,75.12
2022-11-03T10:59:46.488Z,74.88
2022-11-03T11:00:46.554Z,74.00
2022-11-03T11:01:49.467Z,73.76
2022-11-03T11:02:46.449Z,74.21
2022-11-03T11:03:46.584Z,74.81
2022-11-03T11:04:46.449Z,75.49
2022-11-03T11:05:46.419Z,74.41
2022-11-03T11:06:46.794Z,74.30
2022-11-03T11:07:46.416Z,75.52
2022-11-03T11:08:46.392Z,75.01
2022-11-03T11:09:46.377Z,75.52
2022-11-03T11:10:46.365Z,75.52
2022-11-03T11:11:46.356Z,75.22
2022-11-03T11:12:46.364Z,75.32
2022-11-03T11:13:46.337Z,75.52
2022-11-03T11:14:46.320Z,75.66
2022-11-03T11:15:46.329Z,76.54
2022-11-03T11:16:46.298Z,76.64
2022-11-03T11:17:46.315Z,76.23
2022-11-03T11:18:46.277Z,76.33
2022-11-03T11:19:46.283Z,76.27
2022-11-03T11:20:46.306Z,76.03
2022-11-03T11:21:46.254Z,76.23
2022-11-03T11:22:46.237Z,76.43
2022-11-03T11:23:46.225Z,76.64
2022-11-03T11:24:46.213Z,76.74
2022-11-03T11:25:46.206Z,77.34
2022-11-03T11:26:46.309Z,76.64
2022-11-03T11:27:46.178Z,76.74
2022-11-03T11:28:46.175Z,76.94
2022-11-03T11:29:46.780Z,76.94
2022-11-03T11:30:46.144Z,77.14
2022-11-03T11:31:46.166Z,76.74
2022-11-03T11:32:52.767Z,76.74
2022-11-03T11:33:46.124Z,76.94
2022-11-03T11:34:46.098Z,77.34
2022-11-03T11:35:46.831Z,76.43
2022-11-03T11:36:46.116Z,76.94
2022-11-03T11:37:46.098Z,76.94
2022-11-03T11:38:46.053Z,76.94
2022-11-03T11:39:46.778Z,76.94
2022-11-03T11:42:02.816Z,77.04
2022-11-03T11:43:02.828Z,77.45
2022-11-03T11:44:02.791Z,76.84
2022-11-03T11:45:02.790Z,76.64
2022-11-03T11:46:03.421Z,77.86
2022-11-03T11:47:02.748Z,76.54
2022-11-03T11:48:02.786Z,76.87
2022-11-03T11:49:02.754Z,77.25
2022-11-03T11:50:02.711Z,77.89
2022-11-03T11:51:02.725Z,77.59
2022-11-03T11:52:02.696Z,77.48
2022-11-03T11:53:02.688Z,77.18
2022-11-03T11:54:17.023Z,77.14
2022-11-03T11:55:03.681Z,78.30
2022-11-03T11:56:02.956Z,77.69
2022-11-03T11:57:02.655Z,77.89
2022-11-03T11:58:02.627Z,77.48
2022-11-03T11:59:03.425Z,77.99
2022-11-03T12:00:05.933Z,78.50
2022-11-03T12:01:03.425Z,77.38
2022-11-03T12:02:05.422Z,76.57
2022-11-03T12:03:03.532Z,77.18
2022-11-03T12:04:02.751Z,76.84
2022-11-03T12:05:05.432Z,77.08
2022-11-03T12:06:03.486Z,77.34
2022-11-03T12:07:02.573Z,76.74
2022-11-03T12:08:02.517Z,76.94
2022-11-03T12:09:02.496Z,76.50
2022-11-03T12:10:02.502Z,76.80
2022-11-03T12:11:05.514Z,76.60
2022-11-03T12:12:08.407Z,76.80
2022-11-03T12:13:06.423Z,76.87
2022-11-03T12:14:02.454Z,76.56
2022-11-03T12:15:02.468Z,76.73
2022-11-03T12:16:03.442Z,76.53
2022-11-03T12:17:02.448Z,75.79
2022-11-03T12:18:02.401Z,76.35
2022-11-03T12:19:02.400Z,75.65
2022-11-03T12:20:02.388Z,73.93
2022-11-03T12:21:04.923Z,74.94
2022-11-03T12:22:02.361Z,74.87
2022-11-03T12:23:02.400Z,73.86
2022-11-03T12:24:02.334Z,73.62
2022-11-03T12:25:02.330Z,73.08
2022-11-03T12:26:02.922Z,72.68
2022-11-03T12:27:23.332Z,72.24
2022-11-03T12:28:02.288Z,71.13
2022-11-03T12:29:02.292Z,70.32
2022-11-03T12:30:02.302Z,70.79
2022-11-03T12:31:02.278Z,70.39
2022-11-03T12:32:02.249Z,70.49
2022-11-03T12:33:02.450Z,70.39
2022-11-03T12:34:02.227Z,70.29
2022-11-03T12:35:02.220Z,70.29
2022-11-03T12:36:02.211Z,69.38
2022-11-03T12:37:02.953Z,69.92
2022-11-03T12:38:03.226Z,70.62
2022-11-03T12:39:02.942Z,70.53
2022-11-03T12:40:04.932Z,71.13
2022-11-03T12:41:02.177Z,69.92
2022-11-03T12:42:02.143Z,69.79
2022-11-03T12:43:02.157Z,69.99
2022-11-03T12:44:02.200Z,69.79
2022-11-03T12:45:04.931Z,68.77
2022-11-03T12:46:02.462Z,70.19
2022-11-03T12:47:02.922Z,70.59
2022-11-03T12:48:02.070Z,69.82
2022-11-03T12:49:02.941Z,69.82
2022-11-03T12:50:05.452Z,68.84
2022-11-03T12:51:02.049Z,70.36
2022-11-03T12:52:07.747Z,71.17
2022-11-03T12:53:03.525Z,71.30
2022-11-03T12:54:02.931Z,70.39
2022-11-03T12:55:02.015Z,70.59
2022-11-03T12:56:01.990Z,69.98
2022-11-03T12:57:02.001Z,70.59
2022-11-03T12:58:02.932Z,69.89
2022-11-03T12:59:01.951Z,70.29
2022-11-03T13:00:01.977Z,70.96
2022-11-03T13:01:02.383Z,70.06